sensor_id;sensor_type;location;lat;lon;timestamp;temperature;humidity
14170;DHT22;63889;50.596;8.690;2023-04-22T00:01:00;12.10;99.90
14170;DHT22;63889;50.596;8.690;2023-04-22T00:03:26;12.10;99.90
14170;DHT22;63889;50.596;8.690;2023-04-22T00:05:53;12.00;99.90
14170;DHT22;63889;50.596;8.690;2023-04-22T00:08:18;12.00;99.90
14170;DHT22;63889;50.596;8.690;2023-04-22T00:10:44;12.00;99.90
14170;DHT22;63889;50.596;8.690;2023-04-22T00:13:10;12.10;99.90
14170;DHT22;63889;50.596;8.690;2023-04-22T00:15:35;12.00;99.90
14170;DHT22;63889;50.596;8.690;2023-04-22T00:18:01;12.00;99.90
14170;DHT22;63889;50.596;8.690;2023-04-22T00:20:26;12.00;99.90
14170;DHT22;63889;50.596;8.690;2023-04-22T00:22:52;12.00;99.90
14170;DHT22;63889;50.596;8.690;2023-04-22T00:25:18;12.00;99.90
14170;DHT22;63889;50.596;8.690;2023-04-22T00:27:43;11.90;99.90
14170;DHT22;63889;50.596;8.690;2023-04-22T00:30:09;11.90;99.90
14170;DHT22;63889;50.596;8.690;2023-04-22T00:32:35;11.80;99.90
14170;DHT22;63889;50.596;8.690;2023-04-22T00:35:01;11.70;99.90
14170;DHT22;63889;50.596;8.690;2023-04-22T00:37:26;11.70;99.90
14170;DHT22;63889;50.596;8.690;2023-04-22T00:39:52;11.70;99.90
14170;DHT22;63889;50.596;8.690;2023-04-22T00:42:18;11.70;99.90
14170;DHT22;63889;50.596;8.690;2023-04-22T00:44:45;11.70;99.90
14170;DHT22;63889;50.596;8.690;2023-04-22T00:47:11;11.60;99.90
14170;DHT22;63889;50.596;8.690;2023-04-22T00:49:37;11.70;99.90
14170;DHT22;63889;50.596;8.690;2023-04-22T00:52:03;11.60;99.90
14170;DHT22;63889;50.596;8.690;2023-04-22T00:54:28;11.60;99.90
14170;DHT22;63889;50.596;8.690;2023-04-22T00:56:55;11.60;99.90
14170;DHT22;63889;50.596;8.690;2023-04-22T00:59:22;11.60;99.90
14170;DHT22;63889;50.596;8.690;2023-04-22T01:01:48;11.70;99.90
14170;DHT22;63889;50.596;8.690;2023-04-22T01:04:14;11.80;99.90
14170;DHT22;63889;50.596;8.690;2023-04-22T01:06:42;11.70;99.90
14170;DHT22;63889;50.596;8.690;2023-04-22T01:09:07;11.80;99.90
14170;DHT22;63889;50.596;8.690;2023-04-22T01:11:34;11.80;99.90
14170;DHT22;63889;50.596;8.690;2023-04-22T01:14:01;11.80;99.90
14170;DHT22;63889;50.596;8.690;2023-04-22T01:16:26;11.80;99.90
14170;DHT22;63889;50.596;8.690;2023-04-22T01:18:53;11.80;99.90
14170;DHT22;63889;50.596;8.690;2023-04-22T01:21:19;11.80;99.90
14170;DHT22;63889;50.596;8.690;2023-04-22T01:23:44;11.80;99.90
14170;DHT22;63889;50.596;8.690;2023-04-22T01:26:10;11.70;99.90
14170;DHT22;63889;50.596;8.690;2023-04-22T01:28:36;11.70;99.90
14170;DHT22;63889;50.596;8.690;2023-04-22T01:31:02;11.70;99.90
14170;DHT22;63889;50.596;8.690;2023-04-22T01:33:28;11.70;99.90
14170;DHT22;63889;50.596;8.690;2023-04-22T01:35:53;11.70;99.90
14170;DHT22;63889;50.596;8.690;2023-04-22T01:38:19;11.60;99.90
14170;DHT22;63889;50.596;8.690;2023-04-22T01:40:45;11.60;99.90
14170;DHT22;63889;50.596;8.690;2023-04-22T01:43:10;11.50;99.90
14170;DHT22;63889;50.596;8.690;2023-04-22T01:45:36;11.50;99.90
14170;DHT22;63889;50.596;8.690;2023-04-22T01:48:02;11.50;99.90
14170;DHT22;63889;50.596;8.690;2023-04-22T01:50:28;11.50;99.90
14170;DHT22;63889;50.596;8.690;2023-04-22T01:52:54;11.50;99.90
14170;DHT22;63889;50.596;8.690;2023-04-22T01:55:20;11.50;99.90
14170;DHT22;63889;50.596;8.690;2023-04-22T01:57:45;11.50;99.90
14170;DHT22;63889;50.596;8.690;2023-04-22T02:00:11;11.50;99.90
14170;DHT22;63889;50.596;8.690;2023-04-22T02:02:37;11.50;99.90
14170;DHT22;63889;50.596;8.690;2023-04-22T02:05:04;11.50;99.90
14170;DHT22;63889;50.596;8.690;2023-04-22T02:07:30;11.30;99.90
14170;DHT22;63889;50.596;8.690;2023-04-22T02:09:56;11.20;99.90
14170;DHT22;63889;50.596;8.690;2023-04-22T02:12:21;11.20;99.90
14170;DHT22;63889;50.596;8.690;2023-04-22T02:14:47;11.20;99.90
14170;DHT22;63889;50.596;8.690;2023-04-22T02:17:13;11.30;99.90
14170;DHT22;63889;50.596;8.690;2023-04-22T02:19:38;11.30;99.90
14170;DHT22;63889;50.596;8.690;2023-04-22T02:22:04;11.40;99.90
14170;DHT22;63889;50.596;8.690;2023-04-22T02:24:29;11.50;99.90
14170;DHT22;63889;50.596;8.690;2023-04-22T02:26:55;11.50;99.90
14170;DHT22;63889;50.596;8.690;2023-04-22T02:29:21;11.60;99.90
14170;DHT22;63889;50.596;8.690;2023-04-22T02:31:48;11.50;99.90
14170;DHT22;63889;50.596;8.690;2023-04-22T02:34:14;11.50;99.90
14170;DHT22;63889;50.596;8.690;2023-04-22T02:36:39;11.50;99.90
14170;DHT22;63889;50.596;8.690;2023-04-22T02:39:05;11.50;99.90
14170;DHT22;63889;50.596;8.690;2023-04-22T02:41:30;11.40;99.90
14170;DHT22;63889;50.596;8.690;2023-04-22T02:43:56;11.40;99.90
14170;DHT22;63889;50.596;8.690;2023-04-22T02:46:21;11.40;99.90
14170;DHT22;63889;50.596;8.690;2023-04-22T02:48:47;11.50;99.90
14170;DHT22;63889;50.596;8.690;2023-04-22T02:51:14;11.50;99.90
14170;DHT22;63889;50.596;8.690;2023-04-22T02:53:40;11.50;99.90
14170;DHT22;63889;50.596;8.690;2023-04-22T02:56:06;11.50;99.90
14170;DHT22;63889;50.596;8.690;2023-04-22T02:58:32;11.40;99.90
14170;DHT22;63889;50.596;8.690;2023-04-22T03:00:58;11.40;99.90
14170;DHT22;63889;50.596;8.690;2023-04-22T03:03:24;11.30;99.90
14170;DHT22;63889;50.596;8.690;2023-04-22T03:05:49;11.30;99.90
14170;DHT22;63889;50.596;8.690;2023-04-22T03:08:15;11.10;99.90
14170;DHT22;63889;50.596;8.690;2023-04-22T03:10:40;11.10;99.90
14170;DHT22;63889;50.596;8.690;2023-04-22T03:13:06;11.10;99.90
14170;DHT22;63889;50.596;8.690;2023-04-22T03:15:31;11.20;99.90
14170;DHT22;63889;50.596;8.690;2023-04-22T03:17:57;11.30;99.90
14170;DHT22;63889;50.596;8.690;2023-04-22T03:20:22;11.30;99.90
14170;DHT22;63889;50.596;8.690;2023-04-22T03:22:48;11.40;99.90
14170;DHT22;63889;50.596;8.690;2023-04-22T03:25:13;11.40;99.90
14170;DHT22;63889;50.596;8.690;2023-04-22T03:27:39;11.50;99.90
14170;DHT22;63889;50.596;8.690;2023-04-22T03:30:05;11.40;99.90
14170;DHT22;63889;50.596;8.690;2023-04-22T03:32:31;11.50;99.90
14170;DHT22;63889;50.596;8.690;2023-04-22T03:34:56;11.50;99.90
14170;DHT22;63889;50.596;8.690;2023-04-22T03:37:22;11.40;99.90
14170;DHT22;63889;50.596;8.690;2023-04-22T03:39:47;11.10;99.90
14170;DHT22;63889;50.596;8.690;2023-04-22T03:42:13;11.10;99.90
14170;DHT22;63889;50.596;8.690;2023-04-22T03:44:39;11.00;99.90
14170;DHT22;63889;50.596;8.690;2023-04-22T03:47:05;11.10;99.90
14170;DHT22;63889;50.596;8.690;2023-04-22T03:49:31;11.20;99.90
14170;DHT22;63889;50.596;8.690;2023-04-22T03:51:56;11.20;99.90
14170;DHT22;63889;50.596;8.690;2023-04-22T03:54:22;11.30;99.90
14170;DHT22;63889;50.596;8.690;2023-04-22T03:56:48;11.30;99.90
14170;DHT22;63889;50.596;8.690;2023-04-22T03:59:13;11.30;99.90
14170;DHT22;63889;50.596;8.690;2023-04-22T04:01:39;11.40;99.90
14170;DHT22;63889;50.596;8.690;2023-04-22T04:04:04;11.40;99.90
14170;DHT22;63889;50.596;8.690;2023-04-22T04:06:30;11.40;99.90
14170;DHT22;63889;50.596;8.690;2023-04-22T04:08:56;11.40;99.90
14170;DHT22;63889;50.596;8.690;2023-04-22T04:11:22;11.30;99.90
14170;DHT22;63889;50.596;8.690;2023-04-22T04:13:48;11.30;99.90
14170;DHT22;63889;50.596;8.690;2023-04-22T04:16:14;11.20;99.90
14170;DHT22;63889;50.596;8.690;2023-04-22T04:18:40;11.10;99.90
14170;DHT22;63889;50.596;8.690;2023-04-22T04:21:06;11.10;99.90
14170;DHT22;63889;50.596;8.690;2023-04-22T04:23:31;11.10;99.90
14170;DHT22;63889;50.596;8.690;2023-04-22T04:25:57;11.10;99.90
14170;DHT22;63889;50.596;8.690;2023-04-22T04:28:25;11.20;99.90
14170;DHT22;63889;50.596;8.690;2023-04-22T04:30:51;11.10;99.90
14170;DHT22;63889;50.596;8.690;2023-04-22T04:33:18;11.10;99.90
14170;DHT22;63889;50.596;8.690;2023-04-22T04:35:43;11.10;99.90
14170;DHT22;63889;50.596;8.690;2023-04-22T04:38:09;11.00;99.90
14170;DHT22;63889;50.596;8.690;2023-04-22T04:40:36;11.00;99.90
14170;DHT22;63889;50.596;8.690;2023-04-22T04:43:01;11.10;99.90
14170;DHT22;63889;50.596;8.690;2023-04-22T04:45:29;11.10;99.90
14170;DHT22;63889;50.596;8.690;2023-04-22T04:47:55;11.00;99.90
14170;DHT22;63889;50.596;8.690;2023-04-22T04:50:20;10.90;99.90
14170;DHT22;63889;50.596;8.690;2023-04-22T04:52:47;10.80;99.90
14170;DHT22;63889;50.596;8.690;2023-04-22T04:55:16;10.80;99.90
14170;DHT22;63889;50.596;8.690;2023-04-22T04:57:43;10.90;99.90
14170;DHT22;63889;50.596;8.690;2023-04-22T05:00:10;10.90;99.90
14170;DHT22;63889;50.596;8.690;2023-04-22T05:02:36;10.90;99.90
14170;DHT22;63889;50.596;8.690;2023-04-22T05:05:02;10.90;99.90
14170;DHT22;63889;50.596;8.690;2023-04-22T05:07:27;11.00;99.90
14170;DHT22;63889;50.596;8.690;2023-04-22T05:09:53;11.00;99.90
14170;DHT22;63889;50.596;8.690;2023-04-22T05:12:18;11.00;99.90
14170;DHT22;63889;50.596;8.690;2023-04-22T05:14:44;10.90;99.90
14170;DHT22;63889;50.596;8.690;2023-04-22T05:17:11;10.90;99.90
14170;DHT22;63889;50.596;8.690;2023-04-22T05:19:37;10.80;99.90
14170;DHT22;63889;50.596;8.690;2023-04-22T05:22:02;10.80;99.90
14170;DHT22;63889;50.596;8.690;2023-04-22T05:24:28;10.70;99.90
14170;DHT22;63889;50.596;8.690;2023-04-22T05:26:53;10.70;99.90
14170;DHT22;63889;50.596;8.690;2023-04-22T05:29:19;10.80;99.90
14170;DHT22;63889;50.596;8.690;2023-04-22T05:31:44;10.90;99.90
14170;DHT22;63889;50.596;8.690;2023-04-22T05:34:10;11.00;99.90
14170;DHT22;63889;50.596;8.690;2023-04-22T05:36:36;11.00;99.90
14170;DHT22;63889;50.596;8.690;2023-04-22T05:39:02;11.00;99.90
14170;DHT22;63889;50.596;8.690;2023-04-22T05:41:28;11.00;99.90
14170;DHT22;63889;50.596;8.690;2023-04-22T05:43:53;11.10;99.90
14170;DHT22;63889;50.596;8.690;2023-04-22T05:46:19;11.20;99.90
14170;DHT22;63889;50.596;8.690;2023-04-22T05:48:45;11.30;99.90
14170;DHT22;63889;50.596;8.690;2023-04-22T05:51:10;11.30;99.90
14170;DHT22;63889;50.596;8.690;2023-04-22T05:53:36;11.40;99.90
14170;DHT22;63889;50.596;8.690;2023-04-22T05:56:01;11.40;99.90
14170;DHT22;63889;50.596;8.690;2023-04-22T05:58:27;11.50;99.90
14170;DHT22;63889;50.596;8.690;2023-04-22T06:00:52;11.60;99.90
14170;DHT22;63889;50.596;8.690;2023-04-22T06:03:18;11.50;99.90
14170;DHT22;63889;50.596;8.690;2023-04-22T06:05:43;11.50;99.90
14170;DHT22;63889;50.596;8.690;2023-04-22T06:08:09;11.60;99.90
14170;DHT22;63889;50.596;8.690;2023-04-22T06:10:35;11.60;99.90
14170;DHT22;63889;50.596;8.690;2023-04-22T06:13:00;11.60;99.90
14170;DHT22;63889;50.596;8.690;2023-04-22T06:15:26;11.60;99.90
14170;DHT22;63889;50.596;8.690;2023-04-22T06:17:52;11.60;99.90
14170;DHT22;63889;50.596;8.690;2023-04-22T06:20:17;11.70;99.90
14170;DHT22;63889;50.596;8.690;2023-04-22T06:22:43;11.70;99.90
14170;DHT22;63889;50.596;8.690;2023-04-22T06:25:08;11.70;99.90
14170;DHT22;63889;50.596;8.690;2023-04-22T06:27:34;11.80;99.90
14170;DHT22;63889;50.596;8.690;2023-04-22T06:29:59;11.80;99.90
14170;DHT22;63889;50.596;8.690;2023-04-22T06:32:25;11.90;99.90
14170;DHT22;63889;50.596;8.690;2023-04-22T06:34:50;12.00;99.90
14170;DHT22;63889;50.596;8.690;2023-04-22T06:37:16;12.10;99.90
14170;DHT22;63889;50.596;8.690;2023-04-22T06:39:42;12.20;99.90
14170;DHT22;63889;50.596;8.690;2023-04-22T06:42:07;12.30;99.90
14170;DHT22;63889;50.596;8.690;2023-04-22T06:44:33;12.40;99.90
14170;DHT22;63889;50.596;8.690;2023-04-22T06:46:58;12.40;99.90
14170;DHT22;63889;50.596;8.690;2023-04-22T06:49:24;12.50;99.90
14170;DHT22;63889;50.596;8.690;2023-04-22T06:51:49;12.60;99.90
14170;DHT22;63889;50.596;8.690;2023-04-22T06:54:15;12.60;99.90
14170;DHT22;63889;50.596;8.690;2023-04-22T06:56:41;12.60;99.90
14170;DHT22;63889;50.596;8.690;2023-04-22T06:59:06;12.60;99.90
14170;DHT22;63889;50.596;8.690;2023-04-22T07:01:32;12.70;99.90
14170;DHT22;63889;50.596;8.690;2023-04-22T07:03:58;12.70;99.90
14170;DHT22;63889;50.596;8.690;2023-04-22T07:06:23;12.80;99.90
14170;DHT22;63889;50.596;8.690;2023-04-22T07:08:49;12.80;99.90
14170;DHT22;63889;50.596;8.690;2023-04-22T07:11:14;12.80;99.90
14170;DHT22;63889;50.596;8.690;2023-04-22T07:13:40;12.90;99.90
14170;DHT22;63889;50.596;8.690;2023-04-22T07:16:06;12.80;99.90
14170;DHT22;63889;50.596;8.690;2023-04-22T07:18:31;12.90;99.90
14170;DHT22;63889;50.596;8.690;2023-04-22T07:20:57;13.00;99.90
14170;DHT22;63889;50.596;8.690;2023-04-22T07:23:23;13.10;99.90
14170;DHT22;63889;50.596;8.690;2023-04-22T07:25:48;13.20;99.90
14170;DHT22;63889;50.596;8.690;2023-04-22T07:28:14;13.30;99.90
14170;DHT22;63889;50.596;8.690;2023-04-22T07:30:39;13.40;99.90
14170;DHT22;63889;50.596;8.690;2023-04-22T07:33:05;13.40;99.90
14170;DHT22;63889;50.596;8.690;2023-04-22T07:35:31;13.50;99.90
14170;DHT22;63889;50.596;8.690;2023-04-22T07:37:56;13.50;99.90
14170;DHT22;63889;50.596;8.690;2023-04-22T07:40:22;13.60;99.90
14170;DHT22;63889;50.596;8.690;2023-04-22T07:42:47;13.80;99.90
14170;DHT22;63889;50.596;8.690;2023-04-22T07:45:13;13.90;99.90
14170;DHT22;63889;50.596;8.690;2023-04-22T07:47:38;13.90;99.90
14170;DHT22;63889;50.596;8.690;2023-04-22T07:50:04;14.00;99.90
14170;DHT22;63889;50.596;8.690;2023-04-22T07:52:30;14.10;99.90
14170;DHT22;63889;50.596;8.690;2023-04-22T07:54:55;14.20;99.90
14170;DHT22;63889;50.596;8.690;2023-04-22T07:57:21;14.30;99.90
14170;DHT22;63889;50.596;8.690;2023-04-22T07:59:47;14.40;99.90
14170;DHT22;63889;50.596;8.690;2023-04-22T08:02:13;14.60;99.90
14170;DHT22;63889;50.596;8.690;2023-04-22T08:04:39;14.80;99.90
14170;DHT22;63889;50.596;8.690;2023-04-22T08:07:04;14.90;99.90
14170;DHT22;63889;50.596;8.690;2023-04-22T08:09:30;15.10;99.90
14170;DHT22;63889;50.596;8.690;2023-04-22T08:11:55;15.30;99.90
14170;DHT22;63889;50.596;8.690;2023-04-22T08:14:22;15.50;99.90
14170;DHT22;63889;50.596;8.690;2023-04-22T08:16:49;15.60;99.90
14170;DHT22;63889;50.596;8.690;2023-04-22T08:19:15;15.60;99.90
14170;DHT22;63889;50.596;8.690;2023-04-22T08:21:40;15.60;99.90
14170;DHT22;63889;50.596;8.690;2023-04-22T08:24:06;15.70;99.90
14170;DHT22;63889;50.596;8.690;2023-04-22T08:26:32;15.70;99.90
14170;DHT22;63889;50.596;8.690;2023-04-22T08:28:57;15.80;99.90
14170;DHT22;63889;50.596;8.690;2023-04-22T08:31:23;15.90;99.90
14170;DHT22;63889;50.596;8.690;2023-04-22T08:33:48;15.90;99.90
14170;DHT22;63889;50.596;8.690;2023-04-22T08:36:15;15.90;99.90
14170;DHT22;63889;50.596;8.690;2023-04-22T08:38:40;15.90;99.90
14170;DHT22;63889;50.596;8.690;2023-04-22T08:41:06;15.90;99.90
14170;DHT22;63889;50.596;8.690;2023-04-22T08:43:32;16.00;99.90
14170;DHT22;63889;50.596;8.690;2023-04-22T08:45:58;16.00;99.90
14170;DHT22;63889;50.596;8.690;2023-04-22T08:48:24;16.20;99.90
14170;DHT22;63889;50.596;8.690;2023-04-22T08:50:51;16.40;99.90
14170;DHT22;63889;50.596;8.690;2023-04-22T08:53:18;16.50;99.90
14170;DHT22;63889;50.596;8.690;2023-04-22T08:55:44;16.70;99.90
14170;DHT22;63889;50.596;8.690;2023-04-22T08:58:11;16.70;99.90
14170;DHT22;63889;50.596;8.690;2023-04-22T09:00:38;16.80;99.90
14170;DHT22;63889;50.596;8.690;2023-04-22T09:03:05;17.10;99.90
14170;DHT22;63889;50.596;8.690;2023-04-22T09:05:36;17.10;99.90
14170;DHT22;63889;50.596;8.690;2023-04-22T09:08:02;17.20;99.90
14170;DHT22;63889;50.596;8.690;2023-04-22T09:10:29;17.30;99.90
14170;DHT22;63889;50.596;8.690;2023-04-22T09:12:56;17.30;99.90
14170;DHT22;63889;50.596;8.690;2023-04-22T09:15:23;17.30;99.90
14170;DHT22;63889;50.596;8.690;2023-04-22T09:17:50;17.40;99.90
14170;DHT22;63889;50.596;8.690;2023-04-22T09:20:16;17.50;99.90
14170;DHT22;63889;50.596;8.690;2023-04-22T09:22:46;17.60;99.90
14170;DHT22;63889;50.596;8.690;2023-04-22T09:25:20;17.70;99.90
14170;DHT22;63889;50.596;8.690;2023-04-22T09:27:54;17.90;99.90
14170;DHT22;63889;50.596;8.690;2023-04-22T09:30:30;17.90;99.90
14170;DHT22;63889;50.596;8.690;2023-04-22T09:33:01;18.00;99.90
14170;DHT22;63889;50.596;8.690;2023-04-22T09:35:34;18.00;99.90
14170;DHT22;63889;50.596;8.690;2023-04-22T09:38:02;18.10;99.90
14170;DHT22;63889;50.596;8.690;2023-04-22T09:40:29;18.20;99.90
14170;DHT22;63889;50.596;8.690;2023-04-22T09:42:56;18.40;99.90
14170;DHT22;63889;50.596;8.690;2023-04-22T09:45:40;18.60;99.90
14170;DHT22;63889;50.596;8.690;2023-04-22T09:48:17;18.70;99.90
14170;DHT22;63889;50.596;8.690;2023-04-22T09:50:45;18.70;99.90
14170;DHT22;63889;50.596;8.690;2023-04-22T09:53:13;18.60;99.90
14170;DHT22;63889;50.596;8.690;2023-04-22T09:55:41;18.60;99.90
14170;DHT22;63889;50.596;8.690;2023-04-22T09:58:15;18.60;99.90
14170;DHT22;63889;50.596;8.690;2023-04-22T10:00:55;18.80;99.90
14170;DHT22;63889;50.596;8.690;2023-04-22T10:03:21;18.90;99.90
14170;DHT22;63889;50.596;8.690;2023-04-22T10:05:47;19.00;99.90
14170;DHT22;63889;50.596;8.690;2023-04-22T10:08:14;19.10;99.90
14170;DHT22;63889;50.596;8.690;2023-04-22T10:10:40;19.10;99.90
14170;DHT22;63889;50.596;8.690;2023-04-22T10:13:07;19.20;99.90
14170;DHT22;63889;50.596;8.690;2023-04-22T10:15:41;19.10;99.90
14170;DHT22;63889;50.596;8.690;2023-04-22T10:18:11;19.10;99.90
14170;DHT22;63889;50.596;8.690;2023-04-22T10:20:38;19.30;99.90
14170;DHT22;63889;50.596;8.690;2023-04-22T10:23:05;19.30;99.90
14170;DHT22;63889;50.596;8.690;2023-04-22T10:25:31;19.40;99.90
14170;DHT22;63889;50.596;8.690;2023-04-22T10:28:04;19.40;99.90
14170;DHT22;63889;50.596;8.690;2023-04-22T10:30:32;19.50;99.90
14170;DHT22;63889;50.596;8.690;2023-04-22T10:36:06;19.50;99.90
14170;DHT22;63889;50.596;8.690;2023-04-22T10:38:35;19.40;99.90
14170;DHT22;63889;50.596;8.690;2023-04-22T10:41:01;19.30;99.90
14170;DHT22;63889;50.596;8.690;2023-04-22T10:43:41;19.30;99.90
14170;DHT22;63889;50.596;8.690;2023-04-22T10:49:06;19.50;99.90
14170;DHT22;63889;50.596;8.690;2023-04-22T10:51:48;19.80;99.90
14170;DHT22;63889;50.596;8.690;2023-04-22T10:57:12;20.10;99.90
14170;DHT22;63889;50.596;8.690;2023-04-22T10:59:49;20.30;99.90
14170;DHT22;63889;50.596;8.690;2023-04-22T11:02:17;20.40;99.90
14170;DHT22;63889;50.596;8.690;2023-04-22T11:04:43;20.30;99.90
14170;DHT22;63889;50.596;8.690;2023-04-22T11:10:07;20.10;99.90
14170;DHT22;63889;50.596;8.690;2023-04-22T11:15:20;20.10;99.90
14170;DHT22;63889;50.596;8.690;2023-04-22T11:17:53;20.30;99.90
14170;DHT22;63889;50.596;8.690;2023-04-22T11:20:19;20.50;99.90
14170;DHT22;63889;50.596;8.690;2023-04-22T11:22:50;20.50;99.90
14170;DHT22;63889;50.596;8.690;2023-04-22T11:25:16;20.50;99.90
14170;DHT22;63889;50.596;8.690;2023-04-22T11:27:42;20.40;99.90
14170;DHT22;63889;50.596;8.690;2023-04-22T11:30:16;20.30;99.90
14170;DHT22;63889;50.596;8.690;2023-04-22T11:32:44;20.30;99.90
14170;DHT22;63889;50.596;8.690;2023-04-22T11:35:12;20.30;99.90
14170;DHT22;63889;50.596;8.690;2023-04-22T11:37:49;20.40;99.90
14170;DHT22;63889;50.596;8.690;2023-04-22T11:40:20;20.60;99.90
14170;DHT22;63889;50.596;8.690;2023-04-22T11:42:47;21.00;99.90
14170;DHT22;63889;50.596;8.690;2023-04-22T11:45:14;21.30;99.90
14170;DHT22;63889;50.596;8.690;2023-04-22T11:47:41;21.50;99.90
14170;DHT22;63889;50.596;8.690;2023-04-22T11:50:09;21.60;99.90
14170;DHT22;63889;50.596;8.690;2023-04-22T11:52:46;21.80;99.90
14170;DHT22;63889;50.596;8.690;2023-04-22T11:55:25;22.00;99.90
14170;DHT22;63889;50.596;8.690;2023-04-22T12:00:34;22.40;99.90
14170;DHT22;63889;50.596;8.690;2023-04-22T12:03:16;22.30;99.90
14170;DHT22;63889;50.596;8.690;2023-04-22T12:08:17;22.60;99.90
14170;DHT22;63889;50.596;8.690;2023-04-22T12:10:51;22.80;99.90
14170;DHT22;63889;50.596;8.690;2023-04-22T12:13:22;23.00;99.90
14170;DHT22;63889;50.596;8.690;2023-04-22T12:15:52;23.10;99.90
14170;DHT22;63889;50.596;8.690;2023-04-22T12:21:17;23.30;99.90
14170;DHT22;63889;50.596;8.690;2023-04-22T12:23:47;23.40;99.90
14170;DHT22;63889;50.596;8.690;2023-04-22T12:26:16;23.50;98.60
14170;DHT22;63889;50.596;8.690;2023-04-22T12:28:43;23.70;99.90
14170;DHT22;63889;50.596;8.690;2023-04-22T12:31:09;23.80;98.70
14170;DHT22;63889;50.596;8.690;2023-04-22T12:33:36;23.90;99.10
14170;DHT22;63889;50.596;8.690;2023-04-22T12:36:03;24.00;99.40
14170;DHT22;63889;50.596;8.690;2023-04-22T12:38:29;24.00;97.50
14170;DHT22;63889;50.596;8.690;2023-04-22T12:40:54;23.80;97.70
14170;DHT22;63889;50.596;8.690;2023-04-22T12:43:20;23.70;98.00
14170;DHT22;63889;50.596;8.690;2023-04-22T12:45:46;23.90;98.70
14170;DHT22;63889;50.596;8.690;2023-04-22T12:48:12;24.00;98.20
14170;DHT22;63889;50.596;8.690;2023-04-22T12:50:37;24.20;97.80
14170;DHT22;63889;50.596;8.690;2023-04-22T12:53:03;24.40;98.50
14170;DHT22;63889;50.596;8.690;2023-04-22T12:55:29;24.60;98.20
14170;DHT22;63889;50.596;8.690;2023-04-22T12:57:55;24.70;98.50
14170;DHT22;63889;50.596;8.690;2023-04-22T13:00:21;24.80;96.80
14170;DHT22;63889;50.596;8.690;2023-04-22T13:02:47;24.80;97.00
14170;DHT22;63889;50.596;8.690;2023-04-22T13:05:14;24.90;97.50
14170;DHT22;63889;50.596;8.690;2023-04-22T13:07:40;25.30;98.30
14170;DHT22;63889;50.596;8.690;2023-04-22T13:10:07;25.60;95.70
14170;DHT22;63889;50.596;8.690;2023-04-22T13:12:33;25.40;95.10
14170;DHT22;63889;50.596;8.690;2023-04-22T13:14:59;25.20;94.50
14170;DHT22;63889;50.596;8.690;2023-04-22T13:17:25;25.00;95.50
14170;DHT22;63889;50.596;8.690;2023-04-22T13:19:51;24.90;94.90
14170;DHT22;63889;50.596;8.690;2023-04-22T13:22:17;24.40;95.50
14170;DHT22;63889;50.596;8.690;2023-04-22T13:24:43;24.10;95.80
14170;DHT22;63889;50.596;8.690;2023-04-22T13:27:09;23.70;95.90
14170;DHT22;63889;50.596;8.690;2023-04-22T13:29:35;23.50;95.70
14170;DHT22;63889;50.596;8.690;2023-04-22T13:32:02;23.60;95.80
14170;DHT22;63889;50.596;8.690;2023-04-22T13:34:28;23.90;95.80
14170;DHT22;63889;50.596;8.690;2023-04-22T13:36:53;24.00;95.60
14170;DHT22;63889;50.596;8.690;2023-04-22T13:39:20;24.00;95.70
14170;DHT22;63889;50.596;8.690;2023-04-22T13:41:45;23.80;94.90
14170;DHT22;63889;50.596;8.690;2023-04-22T13:44:11;23.70;94.70
14170;DHT22;63889;50.596;8.690;2023-04-22T13:46:37;23.50;94.60
14170;DHT22;63889;50.596;8.690;2023-04-22T13:49:03;23.40;95.70
14170;DHT22;63889;50.596;8.690;2023-04-22T13:51:29;23.20;95.30
14170;DHT22;63889;50.596;8.690;2023-04-22T13:53:56;23.10;94.70
14170;DHT22;63889;50.596;8.690;2023-04-22T13:56:23;23.00;94.40
14170;DHT22;63889;50.596;8.690;2023-04-22T13:58:49;22.90;93.80
14170;DHT22;63889;50.596;8.690;2023-04-22T14:01:15;22.80;94.70
14170;DHT22;63889;50.596;8.690;2023-04-22T14:03:42;22.70;93.40
14170;DHT22;63889;50.596;8.690;2023-04-22T14:06:08;22.60;92.60
14170;DHT22;63889;50.596;8.690;2023-04-22T14:08:33;22.50;92.90
14170;DHT22;63889;50.596;8.690;2023-04-22T14:10:59;22.30;92.30
14170;DHT22;63889;50.596;8.690;2023-04-22T14:13:27;22.20;93.00
14170;DHT22;63889;50.596;8.690;2023-04-22T14:15:52;22.20;92.90
14170;DHT22;63889;50.596;8.690;2023-04-22T14:18:18;22.10;92.70
14170;DHT22;63889;50.596;8.690;2023-04-22T14:20:43;22.00;93.20
14170;DHT22;63889;50.596;8.690;2023-04-22T14:23:10;21.90;93.60
14170;DHT22;63889;50.596;8.690;2023-04-22T14:25:36;21.80;93.60
14170;DHT22;63889;50.596;8.690;2023-04-22T14:28:02;21.80;94.20
14170;DHT22;63889;50.596;8.690;2023-04-22T14:30:28;21.70;94.60
14170;DHT22;63889;50.596;8.690;2023-04-22T14:32:54;21.60;94.60
14170;DHT22;63889;50.596;8.690;2023-04-22T14:35:20;21.60;95.10
14170;DHT22;63889;50.596;8.690;2023-04-22T14:37:47;21.50;95.40
14170;DHT22;63889;50.596;8.690;2023-04-22T14:40:12;21.40;95.60
14170;DHT22;63889;50.596;8.690;2023-04-22T14:42:38;21.30;95.70
14170;DHT22;63889;50.596;8.690;2023-04-22T14:45:04;21.30;95.90
14170;DHT22;63889;50.596;8.690;2023-04-22T14:47:30;21.20;96.20
14170;DHT22;63889;50.596;8.690;2023-04-22T14:49:55;21.10;97.70
14170;DHT22;63889;50.596;8.690;2023-04-22T14:52:21;21.00;97.30
14170;DHT22;63889;50.596;8.690;2023-04-22T14:54:47;20.90;98.10
14170;DHT22;63889;50.596;8.690;2023-04-22T14:57:13;20.80;98.90
14170;DHT22;63889;50.596;8.690;2023-04-22T14:59:39;20.80;99.90
14170;DHT22;63889;50.596;8.690;2023-04-22T15:02:05;20.70;99.90
14170;DHT22;63889;50.596;8.690;2023-04-22T15:04:30;20.60;99.90
14170;DHT22;63889;50.596;8.690;2023-04-22T15:06:56;20.50;99.90
14170;DHT22;63889;50.596;8.690;2023-04-22T15:09:25;20.40;99.90
14170;DHT22;63889;50.596;8.690;2023-04-22T15:11:52;20.20;99.90
14170;DHT22;63889;50.596;8.690;2023-04-22T15:14:19;20.20;99.90
14170;DHT22;63889;50.596;8.690;2023-04-22T15:16:44;20.20;99.90
14170;DHT22;63889;50.596;8.690;2023-04-22T15:19:10;20.10;99.90
14170;DHT22;63889;50.596;8.690;2023-04-22T15:21:35;20.10;99.90
14170;DHT22;63889;50.596;8.690;2023-04-22T15:24:01;20.00;99.90
14170;DHT22;63889;50.596;8.690;2023-04-22T15:26:26;20.10;99.90
14170;DHT22;63889;50.596;8.690;2023-04-22T15:28:52;20.00;99.90
14170;DHT22;63889;50.596;8.690;2023-04-22T15:31:20;20.00;99.90
14170;DHT22;63889;50.596;8.690;2023-04-22T15:33:45;20.00;99.90
14170;DHT22;63889;50.596;8.690;2023-04-22T15:36:11;19.80;99.90
14170;DHT22;63889;50.596;8.690;2023-04-22T15:38:37;19.80;99.90
14170;DHT22;63889;50.596;8.690;2023-04-22T15:41:03;19.70;99.90
14170;DHT22;63889;50.596;8.690;2023-04-22T15:43:29;19.70;99.90
14170;DHT22;63889;50.596;8.690;2023-04-22T15:45:56;19.60;99.90
14170;DHT22;63889;50.596;8.690;2023-04-22T15:48:23;19.60;99.90